createdAt,value
2018-04-12T00:00:35.172Z,25.64
2018-04-12T00:01:35.256Z,25.71
2018-04-12T00:02:34.764Z,25.70
2018-04-12T00:03:35.169Z,25.64
2018-04-12T00:04:34.634Z,25.71
2018-04-12T00:05:34.620Z,25.67
2018-04-12T00:06:34.564Z,25.64
2018-04-12T00:07:34.730Z,25.54
2018-04-12T00:08:34.567Z,25.54
2018-04-12T00:09:34.457Z,25.54
2018-04-12T00:10:34.913Z,25.63
2018-04-12T00:11:34.410Z,25.74
2018-04-12T00:12:35.359Z,25.71
2018-04-12T00:13:35.005Z,25.63
2018-04-12T00:14:34.407Z,25.74
2018-04-12T00:15:35.002Z,25.63
2018-04-12T00:16:34.362Z,25.64
2018-04-12T00:17:34.397Z,25.70
2018-04-12T00:18:34.360Z,25.67
2018-04-12T00:19:34.260Z,25.63
2018-04-12T00:20:34.279Z,25.70
2018-04-12T00:21:34.175Z,25.63
2018-04-12T00:22:34.127Z,25.64
2018-04-12T00:23:34.738Z,25.66
2018-04-12T00:24:34.428Z,25.63
2018-04-12T00:25:34.622Z,25.62
2018-04-12T00:26:34.633Z,25.66
2018-04-12T00:27:34.525Z,25.66
2018-04-12T00:28:34.563Z,25.64
2018-04-12T00:29:34.520Z,25.63
2018-04-12T00:30:34.288Z,25.62
2018-04-12T00:31:33.926Z,25.69
2018-04-12T00:32:34.498Z,25.64
2018-04-12T00:33:33.965Z,25.66
2018-04-12T00:34:33.847Z,25.70
2018-04-12T00:35:33.840Z,25.71
2018-04-12T00:36:34.336Z,25.69
2018-04-12T00:37:34.319Z,25.66
2018-04-12T00:38:33.823Z,25.64
2018-04-12T00:39:33.706Z,25.70
2018-04-12T00:40:33.666Z,25.70
2018-04-12T00:41:33.651Z,25.71
2018-04-12T00:42:34.146Z,25.79
2018-04-12T00:43:34.251Z,25.82
2018-04-12T00:44:33.562Z,25.78
2018-04-12T00:45:33.898Z,25.79
2018-04-12T00:46:33.502Z,25.78
2018-04-12T00:47:33.491Z,25.76
2018-04-12T00:48:33.420Z,25.81
2018-04-12T00:49:33.978Z,25.81
2018-04-12T00:50:34.019Z,25.76
2018-04-12T00:51:33.356Z,25.75
2018-04-12T00:52:33.346Z,25.81
2018-04-12T00:53:33.364Z,25.79
2018-04-12T00:54:33.270Z,25.85
2018-04-12T00:55:33.813Z,25.93
2018-04-12T00:56:33.229Z,25.79
2018-04-12T00:57:33.663Z,25.88
2018-04-12T00:58:33.192Z,25.89
2018-04-12T00:59:33.162Z,25.81
2018-04-12T01:00:33.252Z,25.84
2018-04-12T01:01:33.099Z,25.79
2018-04-12T01:02:33.577Z,25.78
2018-04-12T01:03:33.041Z,25.79
2018-04-12T01:04:33.016Z,25.78
2018-04-12T01:05:33.611Z,25.78
2018-04-12T01:06:33.515Z,25.78
2018-04-12T01:07:33.439Z,25.81
2018-04-12T01:08:32.933Z,25.84
2018-04-12T01:09:33.401Z,25.79
2018-04-12T01:10:32.950Z,25.82
2018-04-12T01:11:32.843Z,25.88
2018-04-12T01:12:33.377Z,25.88
2018-04-12T01:13:33.291Z,25.88
2018-04-12T01:14:33.263Z,25.86
2018-04-12T01:15:32.811Z,25.88
2018-04-12T01:16:33.247Z,25.85
2018-04-12T01:17:32.707Z,25.86
2018-04-12T01:18:32.651Z,25.85
2018-04-12T01:19:32.622Z,25.85
2018-04-12T01:20:32.676Z,25.88
2018-04-12T01:21:32.571Z,25.85
2018-04-12T01:22:33.095Z,25.82
2018-04-12T01:23:33.058Z,25.88
2018-04-12T01:24:33.015Z,25.89
2018-04-12T01:25:32.455Z,25.91
2018-04-12T01:26:33.169Z,25.86
2018-04-12T01:27:32.411Z,25.84
2018-04-12T01:28:32.952Z,25.93
2018-04-12T01:29:32.365Z,25.93
2018-04-12T01:30:32.344Z,25.93
2018-04-12T01:31:32.863Z,25.94
2018-04-12T01:32:32.921Z,25.93
2018-04-12T01:33:32.271Z,25.88
2018-04-12T01:34:32.210Z,25.82
2018-04-12T01:35:32.752Z,25.84
2018-04-12T01:36:32.182Z,25.85
2018-04-12T01:37:32.264Z,25.85
2018-04-12T01:38:32.527Z,25.79
2018-04-12T01:39:32.114Z,25.76
2018-04-12T01:40:32.040Z,25.79
2018-04-12T01:41:32.587Z,25.78
2018-04-12T01:42:32.119Z,25.82
2018-04-12T01:43:32.517Z,25.78
2018-04-12T01:44:31.956Z,25.82
2018-04-12T01:45:32.438Z,25.82
2018-04-12T01:46:32.434Z,25.82
2018-04-12T01:47:32.598Z,25.78
2018-04-12T01:48:31.821Z,25.81
2018-04-12T01:49:31.832Z,25.88
2018-04-12T01:50:32.354Z,25.84
2018-04-12T01:51:32.305Z,25.81
2018-04-12T01:52:32.371Z,25.86
2018-04-12T01:53:31.709Z,25.97
2018-04-12T01:54:31.694Z,25.96
2018-04-12T01:55:32.208Z,26.00
2018-04-12T01:56:31.629Z,25.93
2018-04-12T01:57:32.126Z,25.97
2018-04-12T01:58:32.230Z,26.00
2018-04-12T01:59:31.616Z,26.03
2018-04-12T02:00:32.031Z,26.06
2018-04-12T02:01:32.038Z,25.99
2018-04-12T02:02:32.068Z,25.97
2018-04-12T02:03:32.423Z,26.09
2018-04-12T02:04:31.418Z,26.06
2018-04-12T02:05:32.042Z,25.96
2018-04-12T02:06:31.938Z,26.01
2018-04-12T02:07:31.891Z,26.07
2018-04-12T02:08:31.766Z,26.01
2018-04-12T02:09:31.289Z,25.97
2018-04-12T02:10:31.766Z,25.93
2018-04-12T02:11:31.264Z,25.96
2018-04-12T02:12:31.273Z,25.89
2018-04-12T02:13:31.377Z,25.86
2018-04-12T02:14:31.741Z,25.89
2018-04-12T02:15:31.134Z,25.81
2018-04-12T02:16:31.181Z,25.82
2018-04-12T02:17:31.261Z,25.93
2018-04-12T02:18:32.095Z,25.89
2018-04-12T02:19:31.606Z,25.89
2018-04-12T02:20:31.086Z,25.91
2018-04-12T02:21:31.512Z,25.86
2018-04-12T02:22:30.938Z,25.88
2018-04-12T02:23:31.042Z,25.84
2018-04-12T02:24:31.141Z,25.88
2018-04-12T02:25:30.918Z,25.89
2018-04-12T02:26:31.855Z,25.88
2018-04-12T02:27:31.393Z,25.86
2018-04-12T02:28:31.432Z,25.86
2018-04-12T02:29:31.324Z,25.94
2018-04-12T02:30:30.766Z,25.97
2018-04-12T02:31:30.744Z,26.00
2018-04-12T02:32:31.235Z,26.00
2018-04-12T02:33:30.772Z,26.01
2018-04-12T02:34:30.664Z,25.97
2018-04-12T02:35:30.628Z,25.96
2018-04-12T02:36:31.165Z,26.00
2018-04-12T02:37:30.560Z,26.04
2018-04-12T02:38:31.025Z,26.01
2018-04-12T02:39:30.465Z,26.01
2018-04-12T02:40:30.464Z,26.01
2018-04-12T02:41:30.453Z,25.97
2018-04-12T02:42:30.987Z,25.96
2018-04-12T02:43:30.371Z,26.01
2018-04-12T02:44:30.399Z,25.89
2018-04-12T02:45:30.349Z,25.89
2018-04-12T02:46:30.292Z,25.91
2018-04-12T02:47:30.728Z,25.99
2018-04-12T02:48:30.288Z,25.99
2018-04-12T02:49:30.871Z,26.00
2018-04-12T02:50:30.770Z,26.03
2018-04-12T02:51:30.211Z,25.99
2018-04-12T02:52:30.352Z,26.07
2018-04-12T02:53:30.187Z,25.96
2018-04-12T02:54:30.853Z,26.04
2018-04-12T02:55:30.595Z,25.94
2018-04-12T02:56:30.008Z,26.03
2018-04-12T02:57:30.005Z,25.94
2018-04-12T02:58:29.985Z,26.04
2018-04-12T02:59:30.069Z,26.03
2018-04-12T03:00:30.492Z,26.04
2018-04-12T03:01:29.927Z,26.06
2018-04-12T03:02:30.472Z,26.06
2018-04-12T03:03:29.827Z,26.03
2018-04-12T03:05:29.887Z,26.01
2018-04-12T03:06:29.777Z,26.04
2018-04-12T03:07:30.366Z,26.11
2018-04-12T03:08:30.197Z,25.97
2018-04-12T03:09:30.008Z,25.99
2018-04-12T03:10:30.288Z,26.04
2018-04-12T03:11:29.679Z,25.96
2018-04-12T03:12:29.618Z,25.97
2018-04-12T03:13:29.818Z,25.94
2018-04-12T03:14:29.560Z,26.06
2018-04-12T03:15:30.006Z,25.91
2018-04-12T03:16:29.620Z,26.01
2018-04-12T03:17:30.005Z,26.04
2018-04-12T03:18:29.498Z,26.00
2018-04-12T03:19:29.947Z,26.04
2018-04-12T03:20:29.395Z,26.06
2018-04-12T03:21:29.361Z,26.06
2018-04-12T03:22:29.372Z,25.96
2018-04-12T03:23:29.479Z,25.96
2018-04-12T03:24:29.898Z,26.06
2018-04-12T03:25:29.839Z,26.00
2018-04-12T03:26:29.380Z,26.01
2018-04-12T03:27:29.349Z,25.99
2018-04-12T03:28:29.213Z,26.00
2018-04-12T03:29:29.297Z,26.03
2018-04-12T03:30:29.150Z,26.01
2018-04-12T03:31:29.175Z,25.96
2018-04-12T03:32:29.262Z,26.06
2018-04-12T03:33:29.081Z,26.04
2018-04-12T03:34:29.063Z,25.93
2018-04-12T03:35:29.004Z,26.00
2018-04-12T03:36:28.997Z,26.03
2018-04-12T03:37:29.663Z,26.03
2018-04-12T03:38:28.927Z,25.97
2018-04-12T03:39:28.924Z,26.01
2018-04-12T03:40:28.884Z,25.99
2018-04-12T03:41:29.021Z,25.97
2018-04-12T03:42:28.885Z,25.99
2018-04-12T03:43:29.280Z,25.93
2018-04-12T03:44:28.738Z,25.85
2018-04-12T03:45:29.221Z,25.91
2018-04-12T03:46:28.741Z,26.01
2018-04-12T03:47:28.680Z,25.94
2018-04-12T03:48:29.300Z,25.89
2018-04-12T03:49:28.749Z,25.86
2018-04-12T03:50:29.154Z,25.93
2018-04-12T03:51:29.186Z,25.88
2018-04-12T03:52:28.582Z,25.94
2018-04-12T03:53:28.520Z,25.96
2018-04-12T03:54:29.064Z,25.91
2018-04-12T03:55:28.469Z,25.99
2018-04-12T03:56:28.445Z,26.01
2018-04-12T03:57:29.004Z,25.99
2018-04-12T03:58:28.391Z,25.93
2018-04-12T03:59:28.412Z,26.06
2018-04-12T04:00:28.352Z,25.94
2018-04-12T04:01:28.313Z,25.89
2018-04-12T04:02:28.286Z,25.86
2018-04-12T04:03:28.569Z,25.89
2018-04-12T04:04:28.337Z,25.93
2018-04-12T04:05:28.177Z,25.91
2018-04-12T04:06:28.209Z,25.96
2018-04-12T04:07:28.166Z,25.88
2018-04-12T04:08:28.241Z,25.94
2018-04-12T04:09:28.221Z,25.88
2018-04-12T04:10:28.146Z,25.96
2018-04-12T04:11:28.188Z,25.91
2018-04-12T04:12:28.204Z,25.94
2018-04-12T04:13:27.997Z,25.93
2018-04-12T04:14:28.093Z,25.84
2018-04-12T04:15:28.009Z,25.89
2018-04-12T04:16:28.706Z,25.91
2018-04-12T04:17:27.906Z,25.85
2018-04-12T04:18:28.285Z,25.81
2018-04-12T04:19:28.081Z,25.82
2018-04-12T04:20:29.114Z,25.85
2018-04-12T04:21:27.901Z,25.84
2018-04-12T04:22:28.061Z,25.93
2018-04-12T04:23:27.855Z,25.85
2018-04-12T04:24:28.062Z,25.85
2018-04-12T04:25:27.792Z,25.76
2018-04-12T04:26:27.657Z,25.81
2018-04-12T04:27:27.659Z,25.79
2018-04-12T04:28:27.602Z,25.79
2018-04-12T04:29:27.571Z,25.81
2018-04-12T04:30:27.957Z,25.79
2018-04-12T04:31:27.493Z,25.79
2018-04-12T04:32:27.485Z,25.79
2018-04-12T04:33:27.450Z,25.82
2018-04-12T04:34:27.420Z,25.85
2018-04-12T04:35:27.404Z,25.84
2018-04-12T04:36:27.486Z,25.78
2018-04-12T04:37:27.344Z,25.84
2018-04-12T04:38:27.971Z,25.86
2018-04-12T04:39:27.290Z,25.84
2018-04-12T04:40:27.256Z,25.81
2018-04-12T04:41:27.361Z,25.84
2018-04-12T04:42:27.211Z,25.81
2018-04-12T04:43:27.172Z,25.81
2018-04-12T04:44:27.208Z,25.76
2018-04-12T04:45:27.138Z,25.75
2018-04-12T04:46:27.235Z,25.74
2018-04-12T04:47:27.131Z,25.67
2018-04-12T04:48:27.080Z,25.69
2018-04-12T04:49:27.055Z,25.74
2018-04-12T04:50:27.056Z,25.75
2018-04-12T04:51:26.979Z,25.70
2018-04-12T04:52:27.042Z,25.67
2018-04-12T04:53:26.901Z,25.67
2018-04-12T04:54:27.098Z,25.67
2018-04-12T04:55:26.860Z,25.70
2018-04-12T04:56:26.926Z,25.74
2018-04-12T04:57:26.941Z,25.70
2018-04-12T04:58:26.807Z,25.69
2018-04-12T04:59:26.957Z,25.70
2018-04-12T05:00:26.734Z,25.79
2018-04-12T05:01:26.746Z,25.71
2018-04-12T05:02:26.756Z,25.74
2018-04-12T05:03:26.656Z,25.69
2018-04-12T05:04:26.676Z,25.69
2018-04-12T05:05:26.613Z,25.74
2018-04-12T05:06:26.611Z,25.67
2018-04-12T05:07:26.669Z,25.78
2018-04-12T05:08:26.536Z,25.78
2018-04-12T05:09:26.489Z,25.74
2018-04-12T05:10:26.484Z,25.70
2018-04-12T05:11:26.453Z,25.71
2018-04-12T05:12:26.430Z,25.75
2018-04-12T05:13:26.525Z,25.71
2018-04-12T05:14:26.357Z,25.71
2018-04-12T05:15:26.397Z,25.74
2018-04-12T05:16:26.288Z,25.74
2018-04-12T05:17:26.333Z,25.74
2018-04-12T05:18:26.392Z,25.70
2018-04-12T05:19:26.278Z,25.70
2018-04-12T05:20:26.199Z,25.70
2018-04-12T05:21:26.154Z,25.64
2018-04-12T05:22:26.158Z,25.60
2018-04-12T05:23:26.204Z,25.59
2018-04-12T05:24:26.139Z,25.63
2018-04-12T05:25:26.085Z,25.56
2018-04-12T05:26:26.027Z,25.57
2018-04-12T05:27:26.035Z,25.51
2018-04-12T05:28:25.997Z,25.56
2018-04-12T05:29:26.066Z,25.49
2018-04-12T05:30:26.028Z,25.54
2018-04-12T05:31:25.917Z,25.56
2018-04-12T05:32:25.898Z,25.64
2018-04-12T05:33:25.857Z,25.63
2018-04-12T05:34:25.988Z,25.63
2018-04-12T05:35:25.840Z,25.67
2018-04-12T05:36:25.811Z,25.64
2018-04-12T05:37:25.749Z,25.75
2018-04-12T05:38:25.739Z,25.70
2018-04-12T05:39:25.827Z,25.74
2018-04-12T05:40:25.698Z,25.70
2018-04-12T05:41:25.650Z,25.64
2018-04-12T05:42:25.630Z,25.67
2018-04-12T05:43:25.626Z,25.70
2018-04-12T05:44:25.702Z,25.69
2018-04-12T05:45:25.532Z,25.71
2018-04-12T05:46:25.510Z,25.70
2018-04-12T05:47:25.510Z,25.70
2018-04-12T05:48:25.474Z,25.70
2018-04-12T05:49:25.457Z,25.74
2018-04-12T05:50:25.485Z,25.74
2018-04-12T05:51:25.364Z,25.75
2018-04-12T05:52:25.352Z,25.76
2018-04-12T05:53:25.348Z,25.75
2018-04-12T05:54:25.297Z,25.63
2018-04-12T05:55:25.289Z,25.67
2018-04-12T05:56:25.300Z,25.62
2018-04-12T05:57:25.228Z,25.52
2018-04-12T05:58:25.342Z,25.60
2018-04-12T05:59:25.230Z,25.63
2018-04-12T06:00:25.185Z,25.54
2018-04-12T06:01:25.200Z,25.57
2018-04-12T06:02:25.114Z,25.54
2018-04-12T06:03:25.055Z,25.62
2018-04-12T06:04:25.027Z,25.71
2018-04-12T06:05:25.015Z,25.69
2018-04-12T06:06:25.037Z,25.63
2018-04-12T06:07:24.974Z,25.52
2018-04-12T06:08:24.949Z,25.67
2018-04-12T06:09:24.899Z,25.69
2018-04-12T06:10:24.880Z,25.64
2018-04-12T06:11:24.955Z,25.63
2018-04-12T06:12:24.811Z,25.67
2018-04-12T06:13:24.800Z,25.70
2018-04-12T06:14:24.817Z,25.63
2018-04-12T06:15:24.731Z,25.51
2018-04-12T06:16:24.842Z,25.54
2018-04-12T06:17:24.725Z,25.52
2018-04-12T06:18:24.652Z,25.45
2018-04-12T06:19:24.649Z,25.54
2018-04-12T06:20:24.647Z,25.47
2018-04-12T06:21:24.712Z,25.49
2018-04-12T06:22:24.553Z,25.54
2018-04-12T06:23:24.519Z,25.51
2018-04-12T06:24:24.520Z,25.47
2018-04-12T06:25:24.474Z,25.60
2018-04-12T06:26:24.464Z,25.56
2018-04-12T06:27:24.511Z,25.48
2018-04-12T06:28:24.437Z,25.49
2018-04-12T06:29:24.371Z,25.51
2018-04-12T06:30:24.333Z,25.59
2018-04-12T06:31:24.357Z,25.42
2018-04-12T06:32:24.301Z,25.52
2018-04-12T06:33:24.276Z,25.47
2018-04-12T06:34:24.251Z,25.47
2018-04-12T06:35:24.230Z,25.44
2018-04-12T06:36:24.250Z,25.54
2018-04-12T06:37:24.177Z,25.41
2018-04-12T06:38:24.187Z,25.39
2018-04-12T06:39:24.106Z,25.33
2018-04-12T06:40:24.067Z,25.37
2018-04-12T06:41:24.026Z,25.38
2018-04-12T06:42:24.026Z,25.44
2018-04-12T06:43:24.095Z,25.42
2018-04-12T06:44:23.963Z,25.42
2018-04-12T06:45:23.969Z,25.44
2018-04-12T06:46:23.907Z,25.52
2018-04-12T06:47:23.940Z,25.45
2018-04-12T06:48:24.000Z,25.41
2018-04-12T06:49:23.833Z,25.49
2018-04-12T06:50:23.924Z,25.41
2018-04-12T06:51:23.868Z,25.44
2018-04-12T06:52:23.853Z,25.47
2018-04-12T06:53:24.039Z,25.47
2018-04-12T06:54:23.826Z,25.56
2018-04-12T06:55:23.706Z,25.49
2018-04-12T06:56:23.843Z,25.63
2018-04-12T06:57:23.786Z,25.51
2018-04-12T06:58:23.993Z,25.56
2018-04-12T06:59:23.736Z,25.52
2018-04-12T07:00:23.679Z,25.42
2018-04-12T07:01:23.668Z,25.47
2018-04-12T07:02:23.656Z,25.59
2018-04-12T07:03:23.592Z,25.51
2018-04-12T07:04:23.780Z,25.62
2018-04-12T07:05:23.443Z,25.59
2018-04-12T07:06:23.436Z,25.44
2018-04-12T07:07:23.389Z,25.42
2018-04-12T07:08:23.441Z,25.39
2018-04-12T07:09:23.470Z,25.42
2018-04-12T07:10:23.668Z,25.44
2018-04-12T07:11:23.352Z,25.51
2018-04-12T07:12:23.228Z,25.42
2018-04-12T07:13:23.314Z,25.54
2018-04-12T07:14:23.354Z,25.60
2018-04-12T07:15:23.422Z,25.52
2018-04-12T07:16:23.115Z,25.56
2018-04-12T07:17:23.143Z,25.62
2018-04-12T07:18:23.147Z,25.48
2018-04-12T07:19:23.250Z,25.62
2018-04-12T07:20:23.029Z,25.56
2018-04-12T07:21:23.085Z,25.56
2018-04-12T07:22:23.043Z,25.52
2018-04-12T07:23:23.047Z,25.57
2018-04-12T07:24:22.984Z,25.59
2018-04-12T07:25:23.112Z,25.57
2018-04-12T07:26:23.025Z,25.49
2018-04-12T07:27:22.824Z,25.54
2018-04-12T07:28:22.811Z,25.51
2018-04-12T07:29:22.808Z,25.54
2018-04-12T07:30:22.856Z,25.62
2018-04-12T07:31:22.724Z,25.49
2018-04-12T07:32:22.693Z,25.60
2018-04-12T07:33:22.659Z,25.62
2018-04-12T07:34:22.675Z,25.57
2018-04-12T07:35:22.704Z,25.64
2018-04-12T07:36:22.566Z,25.59
2018-04-12T07:37:22.654Z,25.45
2018-04-12T07:38:22.518Z,25.56
2018-04-12T07:39:22.535Z,25.49
2018-04-12T07:40:22.503Z,25.45
2018-04-12T07:41:22.573Z,25.45
2018-04-12T07:42:22.431Z,25.49
2018-04-12T07:43:22.404Z,25.44
2018-04-12T07:44:22.400Z,25.47
2018-04-12T07:45:22.383Z,25.45
2018-04-12T07:46:22.319Z,25.32
2018-04-12T07:47:22.398Z,25.34
2018-04-12T07:48:22.275Z,25.30
2018-04-12T07:49:22.262Z,25.32
2018-04-12T07:50:22.233Z,25.32
2018-04-12T07:51:22.234Z,25.38
2018-04-12T07:52:22.237Z,25.30
2018-04-12T07:53:22.142Z,25.38
2018-04-12T07:54:22.108Z,25.44
2018-04-12T07:55:22.071Z,25.38
2018-04-12T07:56:22.069Z,25.29
2018-04-12T07:57:22.064Z,25.42
2018-04-12T07:58:22.001Z,25.30
2018-04-12T07:59:21.985Z,25.37
2018-04-12T08:00:21.970Z,25.34
2018-04-12T08:01:21.948Z,25.33
2018-04-12T08:02:22.008Z,25.32
2018-04-12T08:03:21.853Z,25.34
2018-04-12T08:04:21.869Z,25.32
2018-04-12T08:05:21.820Z,25.29
2018-04-12T08:06:21.775Z,25.30
2018-04-12T08:07:21.853Z,25.33
2018-04-12T08:08:21.745Z,25.30
2018-04-12T08:09:21.724Z,25.30
2018-04-12T08:10:21.679Z,25.37
2018-04-12T08:11:21.658Z,25.34
2018-04-12T08:12:21.745Z,25.26
2018-04-12T08:13:21.612Z,25.19
2018-04-12T08:14:21.839Z,25.26
2018-04-12T08:15:22.336Z,25.20
2018-04-12T08:16:22.136Z,25.20
2018-04-12T08:17:21.533Z,25.15
2018-04-12T08:18:21.564Z,25.19
2018-04-12T08:19:21.462Z,25.19
2018-04-12T08:20:21.432Z,25.11
2018-04-12T08:21:21.379Z,25.20
2018-04-12T08:22:21.383Z,25.19
2018-04-12T08:23:21.324Z,25.23
2018-04-12T08:24:21.315Z,25.11
2018-04-12T08:25:21.294Z,25.14
2018-04-12T08:26:21.246Z,25.14
2018-04-12T08:27:21.235Z,25.15
2018-04-12T08:28:21.215Z,25.09
2018-04-12T08:29:21.243Z,25.14
2018-04-12T08:30:21.146Z,25.15
2018-04-12T08:31:21.117Z,25.09
2018-04-12T08:32:21.107Z,25.15
2018-04-12T08:33:21.067Z,25.11
2018-04-12T08:34:21.088Z,25.07
2018-04-12T08:35:21.037Z,25.08
2018-04-12T08:36:20.982Z,25.01
2018-04-12T08:37:20.969Z,25.02
2018-04-12T08:38:20.942Z,25.04
2018-04-12T08:39:21.009Z,25.08
2018-04-12T08:40:20.904Z,25.02
2018-04-12T08:41:20.855Z,25.01
2018-04-12T08:42:20.867Z,25.04
2018-04-12T08:43:20.825Z,25.05
2018-04-12T08:44:20.891Z,25.00
2018-04-12T08:45:20.750Z,25.01
2018-04-12T08:46:20.714Z,24.93
2018-04-12T08:47:20.681Z,24.94
2018-04-12T08:48:20.672Z,24.90
2018-04-12T08:49:20.652Z,24.86
2018-04-12T08:50:20.699Z,24.77
2018-04-12T08:51:20.588Z,24.77
2018-04-12T08:52:20.564Z,24.82
2018-04-12T08:53:20.534Z,24.77
2018-04-12T08:54:20.505Z,24.82
2018-04-12T08:55:20.587Z,24.75
2018-04-12T08:56:20.443Z,24.77
2018-04-12T08:57:20.460Z,24.82
2018-04-12T08:58:20.388Z,24.80
2018-04-12T08:59:20.385Z,24.77
2018-04-12T09:00:20.363Z,24.77
2018-04-12T09:01:20.391Z,24.77
2018-04-12T09:02:20.302Z,24.74
2018-04-12T09:03:20.270Z,24.66
2018-04-12T09:04:20.235Z,24.61
2018-04-12T09:05:20.234Z,24.63
2018-04-12T09:06:20.283Z,24.64
2018-04-12T09:07:20.176Z,24.70
2018-04-12T09:08:20.144Z,24.67
2018-04-12T09:09:20.144Z,24.69
2018-04-12T09:10:20.124Z,24.69
2018-04-12T09:11:20.042Z,24.63
2018-04-12T09:12:20.043Z,24.63
2018-04-12T09:13:19.999Z,24.63
2018-04-12T09:14:19.961Z,24.64
2018-04-12T09:15:19.933Z,24.66
2018-04-12T09:16:20.013Z,24.63
2018-04-12T09:17:19.883Z,24.66
2018-04-12T09:18:19.862Z,24.59
2018-04-12T09:19:19.856Z,24.61
2018-04-12T09:20:19.823Z,24.54
2018-04-12T09:21:19.889Z,24.61
2018-04-12T09:22:19.743Z,24.61
2018-04-12T09:23:19.739Z,24.63
2018-04-12T09:24:19.699Z,24.61
2018-04-12T09:25:19.708Z,24.59
2018-04-12T09:26:19.709Z,24.63
2018-04-12T09:27:19.624Z,24.61
2018-04-12T09:28:19.610Z,24.67
2018-04-12T09:29:19.555Z,24.59
2018-04-12T09:30:19.527Z,24.61
2018-04-12T09:31:19.496Z,24.61
2018-04-12T09:32:19.576Z,24.63
2018-04-12T09:33:19.511Z,24.63
2018-04-12T09:34:19.434Z,24.63
2018-04-12T09:35:19.425Z,24.64
2018-04-12T09:36:19.369Z,24.59
2018-04-12T09:37:19.356Z,24.66
2018-04-12T09:38:19.385Z,24.67
2018-04-12T09:39:19.332Z,24.59
2018-04-12T09:40:19.258Z,24.61
2018-04-12T09:41:19.291Z,24.64
2018-04-12T09:42:19.214Z,24.61
2018-04-12T09:43:19.229Z,24.59
2018-04-12T09:44:19.166Z,24.64
2018-04-12T09:45:19.130Z,24.66
2018-04-12T09:46:19.179Z,24.64
2018-04-12T09:47:19.090Z,24.67
2018-04-12T09:48:19.105Z,24.48
2018-04-12T09:49:19.114Z,24.52
2018-04-12T09:50:19.001Z,24.63
2018-04-12T09:51:18.960Z,24.61
2018-04-12T09:52:18.940Z,24.55
2018-04-12T09:53:19.026Z,24.49
2018-04-12T09:54:18.897Z,24.52
2018-04-12T09:55:18.876Z,24.56
2018-04-12T09:56:18.849Z,24.44
2018-04-12T09:57:18.795Z,24.48
2018-04-12T09:58:18.872Z,24.46
2018-04-12T09:59:18.839Z,24.49
2018-04-12T10:00:18.729Z,24.44
2018-04-12T10:01:18.694Z,24.48
2018-04-12T10:02:18.683Z,24.36
2018-04-12T10:03:18.687Z,24.36
2018-04-12T10:04:18.662Z,24.34
2018-04-12T10:05:18.600Z,24.36
2018-04-12T10:06:18.579Z,24.34
2018-04-12T10:07:18.566Z,24.40
2018-04-12T10:08:18.526Z,24.39
2018-04-12T10:09:18.628Z,24.32
2018-04-12T10:10:18.547Z,24.37
2018-04-12T10:11:18.426Z,24.34
2018-04-12T10:12:18.411Z,24.42
2018-04-12T10:13:18.365Z,24.33
2018-04-12T10:14:18.342Z,24.37
2018-04-12T10:15:18.366Z,24.36
2018-04-12T10:16:18.293Z,24.33
2018-04-12T10:17:18.282Z,24.37
2018-04-12T10:18:18.253Z,24.37
2018-04-12T10:19:18.224Z,24.39
2018-04-12T10:20:18.254Z,24.40
2018-04-12T10:21:18.153Z,24.34
2018-04-12T10:22:18.144Z,24.32
2018-04-12T10:23:18.118Z,24.42
2018-04-12T10:24:18.099Z,24.42
2018-04-12T10:25:18.139Z,24.39
2018-04-12T10:26:18.034Z,24.34
2018-04-12T10:27:17.999Z,24.39
2018-04-12T10:28:17.978Z,24.36
2018-04-12T10:29:17.955Z,24.37
2018-04-12T10:30:18.035Z,24.34
2018-04-12T10:31:17.878Z,24.36
2018-04-12T10:32:17.858Z,24.39
2018-04-12T10:33:17.837Z,24.42
2018-04-12T10:34:17.807Z,24.36
2018-04-12T10:35:17.829Z,24.37
2018-04-12T10:36:17.791Z,24.37
2018-04-12T10:37:17.739Z,24.36
2018-04-12T10:38:17.698Z,24.30
2018-04-12T10:39:17.691Z,24.36
2018-04-12T10:40:17.649Z,24.36
2018-04-12T10:41:17.659Z,24.39
2018-04-12T10:42:17.572Z,24.34
2018-04-12T10:43:17.580Z,24.34
2018-04-12T10:44:17.589Z,24.21
2018-04-12T10:45:17.535Z,24.32
2018-04-12T10:46:17.618Z,24.32
2018-04-12T10:47:17.496Z,24.36
2018-04-12T10:48:17.419Z,24.44
2018-04-12T10:49:17.408Z,24.36
2018-04-12T10:50:17.355Z,24.34
2018-04-12T10:51:17.354Z,24.37
2018-04-12T10:52:17.365Z,24.37
2018-04-12T10:53:17.292Z,24.39
2018-04-12T10:54:17.262Z,24.37
2018-04-12T10:55:17.246Z,24.40
2018-04-12T10:56:17.228Z,24.36
2018-04-12T10:57:17.247Z,24.39
2018-04-12T10:58:17.145Z,24.36
2018-04-12T10:59:17.146Z,24.34
2018-04-12T11:00:17.095Z,24.42
2018-04-12T11:01:17.082Z,24.37
2018-04-12T11:02:17.126Z,24.36
2018-04-12T11:03:17.023Z,24.34
2018-04-12T11:04:17.001Z,24.34
2018-04-12T11:05:16.959Z,24.32
2018-04-12T11:06:16.938Z,24.34
2018-04-12T11:07:16.947Z,24.34
2018-04-12T11:08:16.927Z,24.32
2018-04-12T11:09:16.889Z,24.22
2018-04-12T11:10:16.873Z,24.19
2018-04-12T11:11:16.824Z,24.22
2018-04-12T11:12:16.825Z,24.24
2018-04-12T11:13:16.779Z,24.19
2018-04-12T11:14:16.721Z,24.26
2018-04-12T11:15:16.712Z,24.12
2018-04-12T11:16:16.663Z,24.18
2018-04-12T11:17:16.678Z,24.24
2018-04-12T11:18:17.274Z,24.21
2018-04-12T11:19:16.587Z,24.19
2018-04-12T11:20:16.719Z,24.15
2018-04-12T11:21:16.688Z,24.14
2018-04-12T11:22:16.536Z,24.26
2018-04-12T11:23:16.605Z,24.29
2018-04-12T11:24:16.512Z,24.17
2018-04-12T11:25:16.452Z,24.18
2018-04-12T11:26:16.397Z,24.19
2018-04-12T11:27:16.538Z,24.21
2018-04-12T11:28:16.360Z,24.14
2018-04-12T11:29:16.412Z,24.24
2018-04-12T11:30:16.300Z,24.15
2018-04-12T11:31:16.276Z,24.07
2018-04-12T11:32:16.228Z,24.21
2018-04-12T11:33:16.182Z,24.17
2018-04-12T11:34:16.199Z,24.12
2018-04-12T11:35:16.201Z,24.09
2018-04-12T11:36:16.112Z,24.09
2018-04-12T11:37:16.129Z,24.11
2018-04-12T11:38:16.079Z,24.11
2018-04-12T11:39:16.142Z,24.08
2018-04-12T11:40:16.029Z,24.09
2018-04-12T11:41:15.980Z,24.12
2018-04-12T11:42:15.949Z,24.12
2018-04-12T11:43:15.934Z,24.11
2018-04-12T11:44:16.184Z,24.15
2018-04-12T11:45:17.131Z,24.09
2018-04-12T11:46:15.940Z,24.21
2018-04-12T11:47:16.247Z,24.12
2018-04-12T11:48:16.046Z,24.18
2018-04-12T11:49:15.801Z,24.18
2018-04-12T11:50:15.786Z,24.19
2018-04-12T11:51:15.710Z,24.27
2018-04-12T11:52:15.700Z,24.22
2018-04-12T11:53:15.678Z,24.24
2018-04-12T11:54:15.625Z,24.24
2018-04-12T11:55:15.646Z,24.30
2018-04-12T11:56:16.348Z,24.39
2018-04-12T11:57:15.571Z,24.32
2018-04-12T11:58:15.564Z,24.33
2018-04-12T11:59:17.168Z,24.36
2018-04-12T12:00:17.705Z,24.40
2018-04-12T12:01:16.731Z,24.46
2018-04-12T12:02:17.055Z,24.49
2018-04-12T12:03:17.095Z,24.49
2018-04-12T12:04:17.068Z,24.48
2018-04-12T12:05:16.115Z,24.51
2018-04-12T12:06:15.300Z,24.52
2018-04-12T12:07:16.764Z,24.55
2018-04-12T12:08:15.266Z,24.52
2018-04-12T12:09:15.205Z,24.55
2018-04-12T12:10:15.209Z,24.55
2018-04-12T12:11:15.293Z,24.52
2018-04-12T12:12:15.142Z,24.59
2018-04-12T12:13:15.128Z,24.63
2018-04-12T12:14:15.111Z,24.61
2018-04-12T12:15:15.070Z,24.61
2018-04-12T12:16:15.159Z,24.61
2018-04-12T12:17:15.019Z,24.66
2018-04-12T12:18:14.956Z,24.78
2018-04-12T12:19:15.204Z,24.82
2018-04-12T12:20:14.904Z,24.80
2018-04-12T12:21:14.905Z,24.78
2018-04-12T12:22:14.922Z,24.78
2018-04-12T12:23:14.848Z,24.97
2018-04-12T12:24:14.836Z,25.01
2018-04-12T12:25:14.838Z,25.04
2018-04-12T12:26:14.890Z,25.14
2018-04-12T12:27:14.824Z,25.08
2018-04-12T12:28:14.735Z,25.17
2018-04-12T12:29:14.693Z,25.23
2018-04-12T12:30:14.639Z,25.19
2018-04-12T12:31:14.772Z,25.37
2018-04-12T12:32:14.645Z,25.30
2018-04-12T12:33:14.757Z,25.48
2018-04-12T12:34:14.565Z,25.88
2018-04-12T12:35:14.547Z,25.89
2018-04-12T12:36:14.469Z,25.93
2018-04-12T12:37:14.571Z,25.88
2018-04-12T12:38:14.476Z,25.94
2018-04-12T12:39:14.428Z,26.16
2018-04-12T12:40:14.406Z,26.35
2018-04-12T12:41:15.042Z,26.68
2018-04-12T12:42:14.431Z,27.28
2018-04-12T12:43:14.301Z,27.53
2018-04-12T12:44:14.287Z,27.76
2018-04-12T12:45:14.428Z,28.11
2018-04-12T12:46:14.241Z,28.61
2018-04-12T12:47:14.258Z,28.67
2018-04-12T12:48:15.442Z,28.65
2018-04-12T12:49:14.172Z,28.72
2018-04-12T12:50:14.138Z,28.64
2018-04-12T12:51:14.143Z,28.58
2018-04-12T12:52:14.232Z,28.08
2018-04-12T12:53:14.149Z,27.68